LIRA/CIA METAR and TAF weather

Enter ICAO airport designator
Station Type Date Time Source
LIRA METAR 2019/09/21 04:50 UTC NOAA

LIRA 210450Z 02005KT CAVOK 14/09 Q1021


Station Type Date Time Source
LIRA Decoded METAR 2019/09/21 04:50 UTC NOAA

Roma / Ciampino, Italy (LIRA) 41-47N 012-35E 105M
Sep 21, 2019 - 12:50 AM EDT / 2019.09.21 0450 UTC
Wind: from the NNE (020 degrees) at 6 MPH (5 KT):0
Visibility: greater than 7 mile(s):0
Temperature: 57 F (14 C)
Dew Point: 48 F (9 C)
Relative Humidity: 71%
Pressure (altimeter): 30.15 in. Hg (1021 hPa)
ob: LIRA 210450Z 02005KT CAVOK 14/09 Q1021
cycle: 5

Station Type Date Time Source
LIRA TAF 2019/09/20 18:25 UTC NOAA

TAF LIRA 201700Z 2018/2118 VRB05KT 9999 SCT030
BECMG 2110/2112 14010KT

Example: see airport list